Time;durP1;ratioP1;P1;durP2;ratioP2;P2;SDS_P1;SDS_P2;PMS_P1;PMS_P2;Temp;Humidity;BMP_temperature;BMP_pressure;BME280_temperature;BME280_humidity;BME280_pressure;Samples;Min_cycle;Max_cycle;Signal;HPM_P1;HPM_P2
2022/04/23 00:00:52;;;;;;;20.60;15.00;;;;;;;7.67;62.08;99772.52;105955;1274;22746;-75
2022/04/23 00:03:18;;;;;;;17.20;14.30;;;;;;;7.65;62.17;99766.75;105845;1274;24362;-79
2022/04/23 00:05:45;;;;;;;18.60;14.20;;;;;;;7.67;62.24;99765.16;106185;1274;25370;-76
2022/04/23 00:08:11;;;;;;;18.80;14.70;;;;;;;7.66;62.12;99763.61;106180;1274;25264;-75
2022/04/23 00:10:38;;;;;;;18.10;15.10;;;;;;;7.66;62.27;99757.46;106144;1274;22560;-79
2022/04/23 00:13:06;;;;;;;23.20;15.50;;;;;;;7.71;62.32;99753.59;106095;1274;25371;-73
2022/04/23 00:15:39;;;;;;;20.10;14.90;;;;;;;7.74;62.31;99749.52;106102;1274;24352;-74
2022/04/23 00:18:07;;;;;;;22.60;15.50;;;;;;;7.76;62.23;99750.21;106140;1274;25255;-73
2022/04/23 00:20:34;;;;;;;19.00;15.00;;;;;;;7.74;62.10;99749.70;106146;1274;24432;-73
2022/04/23 00:23:00;;;;;;;19.80;13.70;;;;;;;7.71;62.16;99745.71;106090;1274;25308;-73
2022/04/23 00:25:27;;;;;;;20.80;14.40;;;;;;;7.72;62.24;99742.35;105878;1274;25448;-71
2022/04/23 00:27:53;;;;;;;19.70;14.20;;;;;;;7.79;62.33;99741.25;106027;1274;24346;-74
2022/04/23 00:30:20;;;;;;;19.10;13.90;;;;;;;7.82;62.22;99736.67;106081;1274;25620;-71
2022/04/23 00:32:47;;;;;;;19.60;14.00;;;;;;;7.87;62.30;99731.89;106091;1274;24264;-72
2022/04/23 00:35:15;;;;;;;19.30;14.50;;;;;;;7.94;62.21;99725.53;106063;1274;26570;-74
2022/04/23 00:37:42;;;;;;;17.80;13.40;;;;;;;7.97;62.12;99726.02;105912;1273;25258;-73
2022/04/23 00:40:16;;;;;;;15.00;12.40;;;;;;;7.97;62.04;99724.80;105862;1276;25484;-75
2022/04/23 00:42:51;;;;;;;14.40;11.90;;;;;;;7.89;61.85;99731.18;106230;1274;22548;-75
2022/04/23 00:45:21;;;;;;;17.00;13.80;;;;;;;7.81;62.10;99730.36;106123;1274;23989;-68
2022/04/23 00:47:49;;;;;;;16.40;11.70;;;;;;;7.84;62.22;99728.92;106174;1274;22540;-72
2022/04/23 00:50:20;;;;;;;16.30;12.20;;;;;;;7.76;62.09;99723.04;106189;1274;25541;-73
2022/04/23 00:52:52;;;;;;;15.70;12.70;;;;;;;7.63;62.38;99722.98;105996;1274;22656;-74
2022/04/23 00:55:19;;;;;;;17.50;12.90;;;;;;;7.55;62.50;99714.27;106057;1274;22691;-75
2022/04/23 00:57:46;;;;;;;15.20;12.80;;;;;;;7.48;62.72;99710.46;105840;1274;22578;-73
2022/04/23 01:00:13;;;;;;;16.00;12.60;;;;;;;7.53;63.08;99711.13;106105;1274;22542;-75
2022/04/23 01:02:39;;;;;;;13.20;11.70;;;;;;;7.59;63.06;99711.08;106103;1274;25365;-75
2022/04/23 01:05:09;;;;;;;15.40;11.50;;;;;;;7.62;62.76;99710.54;106218;1274;25397;-73
2022/04/23 01:07:38;;;;;;;12.40;11.10;;;;;;;7.53;62.75;99704.83;106282;1274;25413;-74
2022/04/23 01:10:08;;;;;;;13.50;12.10;;;;;;;7.40;62.95;99697.73;106203;1273;22543;-77
2022/04/23 01:12:35;;;;;;;12.80;11.50;;;;;;;7.35;63.13;99695.85;106020;1273;25400;-74
2022/04/23 01:15:02;;;;;;;12.90;11.50;;;;;;;7.36;63.39;99694.77;106134;1274;22691;-73
2022/04/23 01:17:28;;;;;;;16.50;11.90;;;;;;;7.36;63.23;99695.14;106055;1274;22697;-74
2022/04/23 01:19:54;;;;;;;15.00;11.00;;;;;;;7.30;63.34;99693.60;106110;1274;24381;-74
2022/04/23 01:22:24;;;;;;;14.40;12.00;;;;;;;7.26;63.35;99691.70;105998;1274;22553;-75
2022/04/23 01:24:51;;;;;;;14.10;12.40;;;;;;;7.23;63.57;99688.39;105943;1274;24348;-73
2022/04/23 01:27:18;;;;;;;12.90;11.50;;;;;;;7.20;63.69;99687.71;105855;1274;25437;-72
2022/04/23 01:29:45;;;;;;;14.80;13.20;;;;;;;7.25;63.88;99685.05;105863;1274;25440;-76
2022/04/23 01:32:11;;;;;;;17.90;13.50;;;;;;;7.26;63.87;99681.20;105912;1276;23892;-73
2022/04/23 01:34:38;;;;;;;14.30;12.40;;;;;;;7.26;63.98;99681.71;105947;1277;25318;-74
2022/04/23 01:37:05;;;;;;;14.10;12.40;;;;;;;7.27;63.89;99679.79;105600;1279;25934;-74
2022/04/23 01:39:31;;;;;;;16.40;14.10;;;;;;;7.31;63.92;99677.66;105658;1280;22564;-77
2022/04/23 01:41:57;;;;;;;14.60;12.40;;;;;;;7.31;63.83;99670.83;105618;1278;22861;-72
2022/04/23 01:44:23;;;;;;;14.20;12.30;;;;;;;7.24;63.89;99673.33;105567;1279;22651;-70
2022/04/23 01:46:49;;;;;;;16.20;13.30;;;;;;;7.23;63.98;99665.79;105745;1280;22949;-74
2022/04/23 01:49:16;;;;;;;14.10;12.10;;;;;;;7.22;64.07;99662.13;105030;1285;25457;-73
2022/04/23 01:51:42;;;;;;;15.60;13.40;;;;;;;7.14;64.16;99660.42;105091;1284;25553;-71
2022/04/23 01:54:08;;;;;;;15.20;12.20;;;;;;;7.13;64.50;99661.48;104876;1285;25269;-76
2022/04/23 01:56:35;;;;;;;16.80;13.00;;;;;;;7.13;64.49;99652.03;105268;1284;22660;-75
2022/04/23 01:59:01;;;;;;;14.60;12.80;;;;;;;7.14;64.59;99646.95;105095;1287;24698;-76
2022/04/23 02:01:27;;;;;;;19.40;13.70;;;;;;;7.15;64.63;99649.73;105013;1282;23728;-76
2022/04/23 02:03:53;;;;;;;17.20;13.00;;;;;;;7.20;64.74;99643.40;104988;1283;22823;-81
2022/04/23 02:06:20;;;;;;;19.80;15.10;;;;;;;7.27;64.84;99640.20;105109;1284;24370;-77
2022/04/23 02:08:46;;;;;;;15.60;14.00;;;;;;;7.36;64.92;99636.64;105981;1274;23962;-75
2022/04/23 02:11:12;;;;;;;15.60;13.10;;;;;;;7.45;64.79;99636.73;105965;1275;25384;-76
2022/04/23 02:13:38;;;;;;;18.10;14.00;;;;;;;7.46;64.54;99638.66;105836;1277;22537;-76
2022/04/23 02:16:05;;;;;;;15.40;13.60;;;;;;;7.45;64.74;99640.59;106203;1274;25539;-77
2022/04/23 02:18:32;;;;;;;14.80;12.40;;;;;;;7.45;64.62;99639.18;107352;1274;26531;-76
2022/04/23 02:20:59;;;;;;;15.50;13.00;;;;;;;7.45;64.59;99633.57;106968;1274;22557;-78
2022/04/23 02:23:25;;;;;;;18.40;14.00;;;;;;;7.48;64.79;99636.87;106200;1274;22588;-81
2022/04/23 02:25:52;;;;;;;15.30;13.60;;;;;;;7.52;64.65;99639.48;105993;1274;26641;-79
2022/04/23 02:28:19;;;;;;;15.50;13.90;;;;;;;7.55;64.74;99645.93;106047;1277;22698;-78
2022/04/23 02:30:45;;;;;;;16.10;13.70;;;;;;;7.61;64.59;99639.57;106095;1275;25578;-77
2022/04/23 02:33:11;;;;;;;17.50;13.70;;;;;;;7.65;64.71;99635.30;106141;1274;24325;-78
2022/04/23 02:35:39;;;;;;;15.60;13.00;;;;;;;7.69;64.60;99633.72;106036;1274;22550;-77
2022/04/23 02:38:06;;;;;;;15.60;13.50;;;;;;;7.71;64.54;99638.61;105833;1274;25758;-76
2022/04/23 02:40:32;;;;;;;16.00;13.30;;;;;;;7.72;64.44;99641.05;106087;1275;24218;-76
2022/04/23 02:42:58;;;;;;;17.00;13.90;;;;;;;7.67;64.24;99640.21;106060;1274;25340;-77
2022/04/23 02:45:25;;;;;;;15.40;13.80;;;;;;;7.63;64.42;99639.02;106949;1274;24776;-81
2022/04/23 02:47:54;;;;;;;15.20;13.60;;;;;;;7.59;64.30;99635.39;106284;1275;24292;-78
2022/04/23 02:50:35;;;;;;;16.70;13.20;;;;;;;7.48;64.32;99633.89;106383;1274;24284;-78
2022/04/23 02:53:03;;;;;;;14.80;12.40;;;;;;;7.35;64.54;99636.81;106117;1277;25309;-77
2022/04/23 02:55:31;;;;;;;14.50;12.50;;;;;;;7.34;64.79;99640.49;105827;1282;22569;-79
2022/04/23 02:58:03;;;;;;;16.30;14.10;;;;;;;7.32;65.01;99639.10;105985;1279;25383;-75
2022/04/23 03:00:29;;;;;;;13.60;12.20;;;;;;;7.40;65.21;99647.62;105808;1280;22528;-76
2022/04/23 03:02:56;;;;;;;15.60;13.30;;;;;;;7.40;65.03;99644.82;106029;1278;25380;-76
2022/04/23 03:05:23;;;;;;;15.90;12.70;;;;;;;7.36;65.00;99641.89;105344;1283;25326;-77
2022/04/23 03:07:50;;;;;;;16.00;14.10;;;;;;;7.37;65.23;99641.17;105321;1283;24283;-77
2022/04/23 03:10:21;;;;;;;15.10;12.70;;;;;;;7.39;65.18;99634.67;104647;1288;22555;-75
2022/04/23 03:12:47;;;;;;;17.50;14.40;;;;;;;7.36;65.28;99635.74;104546;1288;24272;-74
2022/04/23 03:15:16;;;;;;;14.80;13.20;;;;;;;7.39;65.32;99631.34;105312;1284;25437;-75
2022/04/23 03:17:44;;;;;;;16.50;13.90;;;;;;;7.42;65.42;99634.48;105247;1285;23340;-79
2022/04/23 03:20:12;;;;;;;15.90;13.50;;;;;;;7.51;65.44;99639.84;105253;1286;25378;-76
2022/04/23 03:22:43;;;;;;;16.80;13.40;;;;;;;7.53;65.44;99635.25;105285;1284;24372;-78
2022/04/23 03:25:11;;;;;;;17.50;13.70;;;;;;;7.58;65.48;99636.80;106617;1281;26728;-74
2022/04/23 03:27:37;;;;;;;15.10;13.40;;;;;;;7.56;65.24;99638.73;107287;1281;22579;-75
2022/04/23 03:30:06;;;;;;;15.70;12.90;;;;;;;7.55;65.26;99638.05;106684;1277;26749;-81
2022/04/23 03:32:32;;;;;;;12.90;11.50;;;;;;;7.55;65.32;99634.19;106023;1278;24367;-76
2022/04/23 03:34:59;;;;;;;14.60;12.30;;;;;;;7.58;65.28;99635.75;106150;1277;22584;-76
2022/04/23 03:37:26;;;;;;;15.90;13.40;;;;;;;7.64;65.50;99636.91;106245;1275;22707;-81
2022/04/23 03:39:52;;;;;;;15.40;13.70;;;;;;;7.72;65.28;99641.58;106164;1275;26753;-81
2022/04/23 03:42:18;;;;;;;15.40;13.20;;;;;;;7.79;65.39;99645.36;106013;1275;22564;-83
2022/04/23 03:44:44;;;;;;;16.50;14.20;;;;;;;7.84;65.36;99642.86;106024;1274;24232;-75
2022/04/23 03:47:10;;;;;;;17.50;14.60;;;;;;;7.89;65.20;99647.02;106089;1275;22563;-80
2022/04/23 03:49:36;;;;;;;15.20;13.00;;;;;;;7.88;65.10;99651.22;105933;1277;25582;-81
2022/04/23 03:52:03;;;;;;;15.80;13.40;;;;;;;7.86;64.86;99651.79;106040;1277;25598;-79
2022/04/23 03:54:29;;;;;;;15.00;13.50;;;;;;;7.76;64.91;99651.71;107317;1274;22698;-82
2022/04/23 03:56:56;;;;;;;15.10;13.50;;;;;;;7.71;64.92;99651.59;108594;1274;23975;-82
2022/04/23 03:59:23;;;;;;;15.50;13.70;;;;;;;7.64;65.07;99653.20;106741;1274;26593;-83
2022/04/23 04:01:53;;;;;;;15.80;13.30;;;;;;;7.64;65.31;99651.98;106674;1274;24378;-83
2022/04/23 04:04:21;;;;;;;14.10;12.50;;;;;;;7.68;65.41;99648.45;105903;1284;24380;-81
2022/04/23 04:06:47;;;;;;;14.60;12.90;;;;;;;7.74;65.47;99647.34;106063;1284;24322;-83
2022/04/23 04:09:13;;;;;;;15.00;12.10;;;;;;;7.80;65.44;99648.85;105629;1283;22787;-83
2022/04/23 04:14:25;;;;;;;14.20;12.00;;;;;;;7.95;65.08;99647.14;105674;1282;25588;-82
2022/04/23 04:16:51;;;;;;;14.30;12.60;;;;;;;7.97;65.13;99646.77;105518;1284;22732;-80
2022/04/23 04:19:18;;;;;;;15.50;12.90;;;;;;;8.02;65.09;99643.56;105641;1281;24249;-78
2022/04/23 04:21:46;;;;;;;15.50;13.50;;;;;;;8.04;64.98;99643.89;106479;1277;24227;-77
2022/04/23 04:24:16;;;;;;;14.40;12.40;;;;;;;8.04;65.02;99645.80;106185;1275;22544;-81
2022/04/23 04:26:45;;;;;;;18.70;12.90;;;;;;;8.00;64.71;99645.34;105962;1277;24233;-78
2022/04/23 04:29:12;;;;;;;14.60;12.90;;;;;;;7.99;64.80;99644.13;105929;1281;22573;-78
2022/04/23 04:31:47;;;;;;;16.10;12.90;;;;;;;8.01;65.07;99645.31;105746;1284;24298;-80
2022/04/23 04:34:18;;;;;;;16.90;13.60;;;;;;;8.06;65.01;99639.82;106205;1284;25398;-78
2022/04/23 04:36:47;;;;;;;15.50;13.50;;;;;;;8.10;64.84;99642.95;106720;1286;22621;-79
2022/04/23 04:39:17;;;;;;;14.30;12.80;;;;;;;8.15;64.78;99642.55;105139;1284;22579;-80
2022/04/23 04:41:46;;;;;;;15.20;13.70;;;;;;;8.12;64.57;99640.46;105302;1284;22676;-77
2022/04/23 04:44:13;;;;;;;14.90;12.60;;;;;;;8.09;64.71;99646.27;104869;1284;25353;-78
2022/04/23 04:46:39;;;;;;;13.00;11.60;;;;;;;8.02;64.51;99635.85;105182;1282;24269;-78
2022/04/23 04:49:06;;;;;;;14.50;12.90;;;;;;;7.98;64.55;99645.18;105710;1274;22671;-83
2022/04/23 04:51:35;;;;;;;14.30;12.50;;;;;;;7.95;64.81;99649.60;106092;1277;22830;-82
2022/04/23 04:54:02;;;;;;;15.80;13.30;;;;;;;7.98;65.02;99651.14;107654;1274;22558;-77
2022/04/23 04:56:28;;;;;;;16.80;12.40;;;;;;;8.04;65.07;99650.89;106707;1275;25319;-83
2022/04/23 04:58:54;;;;;;;13.20;11.80;;;;;;;8.04;64.81;99647.92;107183;1274;22606;-85
2022/04/23 05:01:20;;;;;;;13.30;11.90;;;;;;;8.06;64.96;99651.41;107089;1277;22570;-88
2022/04/23 05:03:47;;;;;;;14.80;12.00;;;;;;;8.09;64.95;99652.08;106293;1274;24393;-87
2022/04/23 05:06:14;;;;;;;15.30;11.80;;;;;;;8.14;64.92;99645.70;108401;1274;269127;-88
2022/04/23 05:08:40;;;;;;;13.90;11.80;;;;;;;8.15;64.95;99644.83;108210;1274;22827;-90
2022/04/23 05:11:07;;;;;;;13.40;11.50;;;;;;;8.13;64.78;99648.19;108688;1274;22724;-90
2022/04/23 05:13:33;;;;;;;14.00;12.50;;;;;;;8.12;64.83;99649.23;108583;1274;22659;-91
2022/04/23 05:16:00;;;;;;;13.00;11.30;;;;;;;8.20;64.90;99651.10;106699;1274;22481;-90
2022/04/23 05:18:26;;;;;;;15.10;12.30;;;;;;;8.24;64.77;99651.20;106977;1274;22583;-91
2022/04/23 05:20:53;;;;;;;13.60;12.20;;;;;;;8.27;64.77;99650.46;107193;1274;22546;-90
2022/04/23 05:23:19;;;;;;;13.10;10.60;;;;;;;8.31;64.70;99652.18;106715;1277;22544;-89
2022/04/23 05:25:46;;;;;;;14.10;11.40;;;;;;;8.34;64.70;99652.33;106600;1274;22764;-91
2022/04/23 05:28:12;;;;;;;14.00;11.30;;;;;;;8.40;64.76;99654.55;106700;1274;22564;-86
2022/04/23 05:30:38;;;;;;;12.40;11.10;;;;;;;8.47;64.74;99653.74;106148;1277;25392;-88
2022/04/23 05:33:05;;;;;;;13.70;11.10;;;;;;;8.53;64.68;99655.98;106534;1274;23343;-88
2022/04/23 05:35:33;;;;;;;13.40;10.80;;;;;;;8.57;64.58;99654.72;106571;1274;24095;-90
2022/04/23 05:37:59;;;;;;;12.30;10.40;;;;;;;8.51;64.34;99654.40;106236;1277;22680;-89
2022/04/23 05:40:27;;;;;;;12.70;10.70;;;;;;;8.48;64.45;99653.58;106187;1275;23122;-90
2022/04/23 05:43:03;;;;;;;13.00;10.60;;;;;;;8.53;64.66;99653.51;107018;1274;23029;-87
2022/04/23 05:45:30;;;;;;;11.00;9.90;;;;;;;8.61;64.66;99655.19;106954;1275;24310;-88
2022/04/23 05:47:57;;;;;;;11.90;10.20;;;;;;;8.62;64.48;99654.98;106637;1274;24400;-86
2022/04/23 05:50:24;;;;;;;11.20;10.20;;;;;;;8.68;64.47;99654.39;106257;1274;24253;-85
2022/04/23 05:52:50;;;;;;;11.00;9.70;;;;;;;8.74;64.44;99656.77;106121;1274;23841;-86
2022/04/23 05:55:16;;;;;;;12.20;11.00;;;;;;;8.78;64.18;99650.41;106200;1275;24392;-87
2022/04/23 05:57:43;;;;;;;12.00;10.10;;;;;;;8.79;64.03;99658.65;106395;1275;23940;-87
2022/04/23 06:00:11;;;;;;;11.00;9.90;;;;;;;8.80;63.95;99658.45;106612;1277;23225;-87
2022/04/23 06:02:39;;;;;;;8.70;7.90;;;;;;;8.85;64.10;99658.91;107212;1274;22581;-92
2022/04/23 06:05:07;;;;;;;12.10;10.80;;;;;;;8.90;63.91;99660.59;107210;1275;25516;-87
2022/04/23 06:07:34;;;;;;;11.30;10.10;;;;;;;8.95;63.63;99651.73;107076;1274;22695;-91
2022/04/23 06:10:00;;;;;;;12.30;10.00;;;;;;;8.96;63.53;99649.45;107074;1274;22554;-89
2022/04/23 06:12:27;;;;;;;11.70;9.60;;;;;;;8.95;63.47;99645.95;107638;1274;24065;-83
2022/04/23 06:14:53;;;;;;;10.80;9.70;;;;;;;8.95;63.62;99648.41;107358;1277;22640;-91
2022/04/23 06:17:28;;;;;;;10.10;9.00;;;;;;;9.02;63.70;99651.84;106729;1275;25329;-89
2022/04/23 06:19:56;;;;;;;11.40;8.70;;;;;;;9.07;63.66;99650.52;106524;1274;26625;-91
2022/04/23 06:22:23;;;;;;;10.50;8.70;;;;;;;9.14;63.62;99651.98;107403;1274;22707;-89
2022/04/23 06:24:51;;;;;;;10.10;9.00;;;;;;;9.21;63.58;99644.86;106880;1277;22660;-90
2022/04/23 06:27:18;;;;;;;8.70;7.50;;;;;;;9.30;63.18;99644.54;106964;1274;22546;-89
2022/04/23 06:29:45;;;;;;;8.20;7.00;;;;;;;9.25;62.72;99639.17;106462;1274;22704;-91
2022/04/23 06:32:12;;;;;;;6.90;6.10;;;;;;;9.21;62.70;99635.74;106661;1273;24071;-91
2022/04/23 06:34:39;;;;;;;8.20;6.70;;;;;;;9.24;62.66;99639.38;106552;1274;24272;-90
2022/04/23 06:37:06;;;;;;;7.50;6.80;;;;;;;9.29;62.73;99641.93;106396;1274;25401;-89
2022/04/23 06:39:33;;;;;;;7.50;6.80;;;;;;;9.36;62.53;99640.59;106340;1275;22691;-90
2022/04/23 06:41:59;;;;;;;8.50;7.60;;;;;;;9.36;62.28;99638.30;106358;1274;24933;-90
2022/04/23 06:44:27;;;;;;;8.30;7.50;;;;;;;9.36;62.37;99641.30;106512;1274;22547;-89
2022/04/23 06:46:54;;;;;;;8.60;7.80;;;;;;;9.40;62.37;99641.77;107753;1274;22564;-89
2022/04/23 06:49:20;;;;;;;7.60;6.90;;;;;;;9.46;62.62;99639.02;108636;1274;25350;-93
2022/04/23 06:51:46;;;;;;;7.60;6.70;;;;;;;9.63;62.69;99640.32;108230;1274;22591;-92
2022/04/23 06:54:13;;;;;;;8.40;6.60;;;;;;;9.82;62.43;99638.59;107849;1274;22567;-92
2022/04/23 06:56:39;;;;;;;6.60;5.90;;;;;;;9.93;61.84;99639.45;107302;1274;22555;-91
2022/04/23 06:59:05;;;;;;;6.60;6.00;;;;;;;10.03;61.75;99633.10;107480;1274;23513;-90
2022/04/23 07:01:32;;;;;;;6.30;5.70;;;;;;;10.13;61.64;99637.48;108055;1274;22556;-92
2022/04/23 07:03:58;;;;;;;6.00;5.40;;;;;;;10.21;61.43;99634.52;107579;1274;25376;-91
2022/04/23 07:06:25;;;;;;;5.70;5.20;;;;;;;10.23;61.06;99634.30;107749;1274;22535;-92
2022/04/23 07:08:51;;;;;;;5.90;5.30;;;;;;;10.26;61.02;99636.89;107520;1277;22579;-91
2022/04/23 07:11:18;;;;;;;5.80;5.10;;;;;;;10.33;60.94;99635.33;107470;1274;22495;-91
2022/04/23 07:13:44;;;;;;;6.20;5.60;;;;;;;10.33;60.32;99635.69;106846;1276;22540;-92
2022/04/23 07:16:12;;;;;;;7.90;5.70;;;;;;;10.30;60.24;99639.98;106876;1274;22691;-91
2022/04/23 07:18:41;;;;;;;6.80;6.20;;;;;;;10.22;60.15;99639.41;106299;1278;25409;-91
2022/04/23 07:21:07;;;;;;;6.10;5.50;;;;;;;10.16;60.51;99638.48;106247;1280;22791;-90
2022/04/23 07:26:19;;;;;;;7.80;6.50;;;;;;;9.94;60.38;99632.91;105672;1284;22742;-91
2022/04/23 07:28:45;;;;;;;6.70;5.90;;;;;;;9.93;60.59;99629.08;107010;1284;22511;-92
2022/04/23 07:31:12;;;;;;;7.00;6.30;;;;;;;9.96;60.74;99624.08;107963;1283;22718;-87
2022/04/23 07:39:09;;;;;;;7.60;6.40;;;;;;;10.05;60.69;99627.42;108650;1279;22675;-86
2022/04/23 07:41:36;;;;;;;7.20;6.50;;;;;;;10.09;60.61;99626.12;109359;1276;22762;-91
2022/04/23 07:44:02;;;;;;;7.60;6.10;;;;;;;10.05;60.42;99624.63;109631;1274;22733;-84
2022/04/23 07:46:30;;;;;;;6.40;5.60;;;;;;;10.04;60.74;99621.47;108970;1273;22893;-90
2022/04/23 07:48:58;;;;;;;7.40;6.70;;;;;;;10.09;60.68;99619.27;109319;1272;22606;-89
2022/04/23 07:51:28;;;;;;;6.90;5.80;;;;;;;10.12;60.63;99615.67;108683;1274;22742;-90
2022/04/23 07:54:01;;;;;;;6.60;5.90;;;;;;;10.13;60.77;99613.73;108349;1274;22615;-89
2022/04/23 07:56:27;;;;;;;6.20;5.60;;;;;;;10.11;60.65;99609.38;106954;1274;23968;-90
2022/04/23 07:58:53;;;;;;;6.80;4.60;;;;;;;10.07;60.55;99611.20;106381;1274;25471;-90
2022/04/23 08:01:20;;;;;;;5.90;4.80;;;;;;;10.01;60.62;99610.44;107169;1274;22699;-89
2022/04/23 08:03:46;;;;;;;7.60;5.10;;;;;;;9.97;60.86;99605.06;106399;1273;22730;-91
2022/04/23 08:06:13;;;;;;;5.30;4.80;;;;;;;10.04;60.90;99607.76;106908;1273;22548;-86
2022/04/23 08:08:40;;;;;;;4.90;4.50;;;;;;;10.13;60.90;99605.47;106728;1274;22576;-91
2022/04/23 08:11:07;;;;;;;5.70;4.20;;;;;;;10.25;60.94;99609.45;107142;1274;22583;-89
2022/04/23 08:13:33;;;;;;;4.70;4.20;;;;;;;10.33;60.93;99606.46;107285;1279;22565;-87
2022/04/23 08:16:00;;;;;;;4.80;4.30;;;;;;;10.36;60.75;99608.88;106614;1277;22770;-89
2022/04/23 08:18:27;;;;;;;5.50;5.00;;;;;;;10.41;60.83;99614.05;107364;1277;22581;-93
2022/04/23 08:20:54;;;;;;;5.60;5.10;;;;;;;10.38;60.56;99612.53;108647;1277;22965;-94
2022/04/23 08:23:21;;;;;;;5.20;4.70;;;;;;;10.21;60.65;99611.12;108073;1276;22497;-93
2022/04/23 08:25:47;;;;;;;6.50;5.90;;;;;;;10.05;61.00;99612.65;107752;1277;22589;-94
2022/04/23 08:31:00;;;;;;;6.10;5.50;;;;;;;9.83;61.44;99610.08;106893;1283;24455;-92
2022/04/23 08:33:57;;;;;;;6.20;5.60;;;;;;;9.74;61.60;99609.55;106866;1283;23019;-94
2022/04/23 08:36:16;;;;;;;6.80;5.80;;;;;;;9.62;61.88;99608.52;106311;1284;22562;-90
2022/04/23 08:38:42;;;;;;;4.60;4.20;;;;;;;9.54;62.05;99609.71;106758;1279;22633;-90
2022/04/23 08:41:11;;;;;;;6.40;5.70;;;;;;;9.52;62.50;99611.15;106489;1279;23952;-91
2022/04/23 08:43:37;;;;;;;6.80;6.10;;;;;;;9.52;62.55;99612.91;107418;1279;24038;-77
2022/04/23 08:46:04;;;;;;;7.40;6.60;;;;;;;9.53;62.56;99613.43;107749;1279;22780;-90
2022/04/23 08:48:48;;;;;;;7.10;6.40;;;;;;;9.54;62.69;99611.82;108892;1274;22670;-91
2022/04/23 08:51:33;;;;;;;6.60;5.60;;;;;;;9.57;62.83;99608.95;108917;1274;22556;-89
2022/04/23 08:54:06;;;;;;;6.80;6.10;;;;;;;9.64;62.93;99606.19;108597;1274;22557;-90
2022/04/23 08:56:32;;;;;;;5.90;4.50;;;;;;;9.70;62.91;99606.80;109347;1274;22676;-90
2022/04/23 08:59:13;;;;;;;5.30;4.40;;;;;;;9.71;62.79;99605.73;109430;1274;22486;-85
2022/04/23 09:01:46;;;;;;;5.10;4.60;;;;;;;9.64;63.23;99597.94;109529;1273;22558;-88
2022/04/23 09:04:12;;;;;;;6.80;4.60;;;;;;;9.71;63.47;99605.73;109190;1274;23135;-87
2022/04/23 09:06:44;;;;;;;4.90;4.30;;;;;;;9.76;63.76;99604.58;108350;1274;22606;-88
2022/04/23 09:09:12;;;;;;;4.90;4.50;;;;;;;9.77;63.88;99598.41;108298;1274;25270;-85
2022/04/23 09:11:46;;;;;;;5.30;4.80;;;;;;;9.81;64.28;99599.04;108332;1272;22658;-89
2022/04/23 09:14:34;;;;;;;5.70;5.10;;;;;;;9.89;64.37;99597.30;108950;1279;22998;-85
2022/04/23 09:25:42;;;;;;;5.10;4.60;;;;;;;10.79;63.48;99592.83;106843;1280;22940;-86
2022/04/23 09:28:19;;;;;;;5.20;4.70;;;;;;;11.03;63.21;99585.05;105270;1287;24018;-87
2022/04/23 09:30:48;;;;;;;6.60;5.10;;;;;;;11.30;62.74;99581.95;104809;1288;22753;-86
2022/04/23 09:33:15;;;;;;;6.00;5.40;;;;;;;11.57;62.27;99580.20;104985;1287;23030;-85
2022/04/23 09:36:01;;;;;;;6.90;5.40;;;;;;;11.81;61.65;99581.51;104936;1287;22723;-86
2022/04/23 09:38:30;;;;;;;6.50;5.90;;;;;;;12.11;61.02;99580.35;105289;1281;24256;-87
2022/04/23 09:40:58;;;;;;;6.50;5.40;;;;;;;12.30;59.97;99578.24;105389;1282;22711;-86
2022/04/23 09:43:48;;;;;;;5.70;4.70;;;;;;;12.41;59.12;99578.11;105689;1282;22883;-84
2022/04/23 09:46:17;;;;;;;5.60;5.00;;;;;;;12.46;58.57;99570.02;105627;1280;22558;-86
2022/04/23 09:49:05;;;;;;;4.50;4.10;;;;;;;12.48;58.23;99569.25;105943;1280;22559;-87
2022/04/23 09:51:34;;;;;;;4.60;4.20;;;;;;;12.50;57.71;99571.81;106156;1280;23465;-84
2022/04/23 09:54:02;;;;;;;4.50;4.10;;;;;;;12.55;57.08;99568.86;106281;1280;23999;-87
2022/04/23 09:56:29;;;;;;;4.70;4.30;;;;;;;12.51;56.78;99568.44;106920;1280;25408;-87
2022/04/23 09:58:56;;;;;;;4.20;3.80;;;;;;;12.48;56.85;99562.36;106111;1280;22873;-86
2022/04/23 10:01:24;;;;;;;4.60;4.20;;;;;;;12.49;56.74;99564.80;106286;1280;22803;-85
2022/04/23 10:03:53;;;;;;;5.00;4.50;;;;;;;12.52;56.82;99564.17;105893;1280;24317;-85
2022/04/23 10:06:21;;;;;;;4.00;3.60;;;;;;;12.55;56.36;99567.63;106225;1280;22993;-86
2022/04/23 10:08:58;;;;;;;3.70;2.80;;;;;;;12.51;55.66;99564.73;106840;1280;24242;-86
2022/04/23 10:11:27;;;;;;;4.70;3.40;;;;;;;12.40;55.12;99569.46;106973;1280;24210;-87
2022/04/23 10:13:59;;;;;;;3.70;3.10;;;;;;;12.33;55.00;99572.32;106311;1280;25554;-86
2022/04/23 10:16:29;;;;;;;3.30;2.80;;;;;;;12.26;54.62;99565.32;105970;1280;24253;-87
2022/04/23 10:18:57;;;;;;;3.80;3.50;;;;;;;12.07;54.39;99570.92;106325;1280;22634;-86
2022/04/23 10:21:56;;;;;;;4.80;3.50;;;;;;;11.86;54.84;99571.67;106483;1280;22583;-86
2022/04/23 10:24:52;;;;;;;4.40;3.70;;;;;;;11.75;55.06;99570.92;107486;1274;22704;-85
2022/04/23 10:27:19;;;;;;;3.60;3.30;;;;;;;11.57;55.14;99570.16;107465;1274;22563;-86
2022/04/23 10:29:50;;;;;;;3.50;3.10;;;;;;;11.32;55.32;99565.86;108267;1274;22615;-87
2022/04/23 10:32:20;;;;;;;4.00;3.60;;;;;;;11.18;55.84;99568.67;108203;1274;22577;-85
2022/04/23 10:34:47;;;;;;;3.60;3.30;;;;;;;11.18;56.28;99568.69;108388;1277;22663;-85
2022/04/23 10:37:28;;;;;;;4.20;3.80;;;;;;;11.22;56.48;99569.45;108128;1274;22559;-84
2022/04/23 10:39:57;;;;;;;3.70;3.40;;;;;;;11.24;56.39;99569.94;108213;1274;26544;-84
2022/04/23 10:42:26;;;;;;;5.30;3.80;;;;;;;11.18;56.48;99570.09;108663;1273;22645;-85
2022/04/23 10:44:57;;;;;;;4.90;4.10;;;;;;;11.12;56.62;99569.17;108299;1274;22623;-85
2022/04/23 10:47:28;;;;;;;4.30;4.00;;;;;;;11.09;56.86;99569.77;108935;1274;22482;-86
2022/04/23 10:50:31;;;;;;;5.80;4.30;;;;;;;11.12;57.16;99568.65;108893;1273;25382;-87
2022/04/23 10:53:03;;;;;;;4.40;4.00;;;;;;;11.16;56.84;99571.55;107184;1276;22549;-86
2022/04/23 10:55:29;;;;;;;5.00;4.50;;;;;;;11.05;56.85;99577.10;107799;1274;22546;-84
2022/04/23 10:58:21;;;;;;;4.40;4.00;;;;;;;10.93;56.99;99578.95;106934;1274;22689;-86
2022/04/23 11:00:48;;;;;;;4.40;4.00;;;;;;;10.86;57.30;99576.83;107692;1274;22919;-87
2022/04/23 11:03:14;;;;;;;4.20;3.80;;;;;;;10.84;57.43;99583.75;107294;1274;24168;-87
2022/04/23 11:14:05;;;;;;;5.40;4.40;;;;;;;10.82;57.98;99586.08;106057;1273;22566;-87
2022/04/23 11:16:31;;;;;;;3.90;3.60;;;;;;;10.88;57.60;99584.88;106166;1277;22581;-87
2022/04/23 11:19:02;;;;;;;4.60;4.00;;;;;;;10.90;57.63;99579.74;106111;1274;22577;-86
2022/04/23 11:21:32;;;;;;;4.70;4.20;;;;;;;10.97;57.52;99576.06;106126;1279;22876;-85
2022/04/23 11:24:02;;;;;;;4.40;4.00;;;;;;;10.94;57.34;99579.99;105878;1279;24265;-86
2022/04/23 11:26:49;;;;;;;3.70;2.90;;;;;;;10.95;57.58;99580.67;106091;1279;22584;-86
2022/04/23 11:29:21;;;;;;;4.40;4.00;;;;;;;10.98;57.46;99580.23;105930;1279;23958;-86
2022/04/23 11:31:51;;;;;;;4.60;4.10;;;;;;;11.06;57.48;99583.05;106092;1280;22544;-85
2022/04/23 11:34:18;;;;;;;5.00;3.90;;;;;;;11.16;57.48;99577.54;105972;1279;22545;-87
2022/04/23 11:36:44;;;;;;;4.20;3.90;;;;;;;11.23;57.23;99572.42;105928;1279;23489;-88
2022/04/23 11:39:13;;;;;;;4.10;3.40;;;;;;;11.34;57.19;99571.09;106057;1281;22570;-86
2022/04/23 11:41:49;;;;;;;5.10;4.20;;;;;;;11.35;56.67;99567.55;105806;1280;22910;-86
2022/04/23 11:45:03;;;;;;;7.40;4.30;;;;;;;11.36;56.63;99571.04;105997;1280;22879;-86
2022/04/23 11:47:12;;;;;;;4.90;4.20;;;;;;;11.33;56.51;99566.38;106523;1274;23972;-87
2022/04/23 11:49:41;;;;;;;5.00;4.00;;;;;;;11.35;56.96;99564.54;106549;1273;24186;-87
2022/04/23 11:52:14;;;;;;;5.10;4.00;;;;;;;11.42;56.89;99558.73;106876;1274;22787;-85
2022/04/23 11:54:46;;;;;;;3.90;3.50;;;;;;;11.47;55.88;99567.05;106880;1279;25966;-86
2022/04/23 11:57:15;;;;;;;5.20;3.00;;;;;;;11.37;55.87;99560.95;106891;1279;22851;-85
2022/04/23 11:59:52;;;;;;;3.80;3.20;;;;;;;11.48;55.71;99558.23;106787;1278;22841;-86